Accueil
METAR-TAF:

METAR-TAF

Aéroports :

Bückeburg, Allemagne

latitude: 52-17N, longitude: 009-05E, altitude: 70 m

Observation

Le bulletin a été fait il y a 53 minutes, à 18:20 UTC
Vent 4 kt de nord/nord-est
Température 21°C
Humidité 49%
Pression 1019 hPa
Visibilité: 5000 m

METAR: ETHB 151820Z AUTO 02004KT 5000 // ////// 21/10 Q1019 ///

Heure: 21:13 (19:13 UTC)

Prévision

Le bulletin a été fait il y a 5 heures et 14 minutes, à 13:59 UTC
Prévision valable du 15 à 14 UTC au 15 à 23 UTC
Vent 6 kt de nord
Visibilité 10 km ou plus
Quelques nuages à une hauteur de 2000 ft
Nuages épars à une hauteur de 9000 ft

TAF: ETHB 151359Z 1514/1523 01006KT 9999 NSW FEW020 SCT090

Observations et prévisions météorologiques de plus de 4000 aéroports (messages METAR et TAF).

Les stations disponibles sont représentées par des disques jaunes et rouges sur la carte.

Passer la souris dessus pour voir le nom de la station.

Cliquer dessus pour voir les observations et prévisions météorologiques.

Pour changer de carte: cliquez sur les boutons verts avec une croix noire pour zoomer, sur le bouton vert avec un tiret pour effectuer un zoom arrière, ou sur les flèches vertes pour les cartes adjacentes.


METAR-TAF: